logo
App data

Combat Core

Welcome to the Combat Core League! Battle with up to 4 players with a cast of powered up characters in a colorful sci-fi arena, or create your own! Compete with your friends or challenge yourself against AI opponents to compete for the title of the strongest.
Store | Hub | SteamDB | Site
Developer: MABManZ Publisher: MABManZ
Genre: Action, Indie
Languages: English
Tags: Action (33), Indie (32), Fighting (16), 4 Player Local (14), Character Customization (13), Local Multiplayer (13), Multiplayer (12), Competitive (12), VR (12), Anime (8)
Category: Single-player, Multi-player, PvP, Online PvP, Shared/Split Screen PvP, Shared/Split Screen, Cross-Platform Multiplayer, Full controller support, VR Support, Remote Play Together
Release date: Jan 10, 2019 (previously in Early Access)
Price: $15.99
Old userscore: 75% Owners: 0 .. 20,000
Followers: 1,723

Steam Spy is still in beta, so expect major bugs.

Owners data:

Access restricted.

This feature is only available to users with special access rights. Sorry.

If you want to proceed, you need to register or log in first and then back Steam Spy on Patreon. Look for Indie or Pro pledge.

Don't forget to use the same email as on Steam Spy!

If you've recently backed Steam Spy on Patreon, please note, that it might take around 15 minutes for your access rights to sync. In most cases you'll need to re-login on Steam Spy too.

Audience in 2 weeks:

Access restricted.

This feature is only available to users with special access rights. Sorry.

If you want to proceed, you need to register or log in first and then back Steam Spy on Patreon. Look for Indie or Pro pledge.

Don't forget to use the same email as on Steam Spy!

If you've recently backed Steam Spy on Patreon, please note, that it might take around 15 minutes for your access rights to sync. In most cases you'll need to re-login on Steam Spy too.

Peak daily concurrent players:

CCU data courtesy of SteamDB. Used with permission.

Hourly concurrent players:

Daily Twitch stats:

Hourly Twitch stats:

Followers over time

Access restricted.

This feature is only available to users with special access rights. Sorry.

If you want to proceed, you need to register or log in first and then back Steam Spy on Patreon. Look for Indie or Pro pledge.

Don't forget to use the same email as on Steam Spy!

If you've recently backed Steam Spy on Patreon, please note, that it might take around 15 minutes for your access rights to sync. In most cases you'll need to re-login on Steam Spy too.

Views for top 50 videos on YouTube for this game:

Games similar to this one:

# Game Release date
Price
Score rank
(Userscore / Metascore)
Owners
Players
Playtime (Median)
1 One Late Night: Deadline Dec 22, 2014 $0.99N/A (N/A)0 .. 20,0000%00:00 (00:00)
2 Beyond Eyes Aug 11, 2015 N/AN/A (N/A/60%)100,000 .. 200,0000%00:00 (00:00)
3 NEO AQUARIUM - The King of Crustaceans - Jun 8, 2015 $8.99N/A (N/A)50,000 .. 100,0000%00:00 (00:00)
4 Farlight Explorers Feb 1, 2019 $9.99N/A (N/A)0 .. 20,0000%00:00 (00:00)
5 Super Galaxy Squadron EX Turbo Mar 6, 2017 $9.99N/A (N/A)50,000 .. 100,0000%00:00 (00:00)
6 Three Fourths Home: Extended Edition Mar 20, 2015 $4.99N/A (N/A/77%)20,000 .. 50,0000%00:00 (00:00)
7 Disillusions Manga Horror Jan 16, 2015 $0.99N/A (N/A)20,000 .. 50,0000%00:00 (00:00)
8 It came from space and ate our brains Mar 19, 2015 $14.99N/A (N/A)200,000 .. 500,0000%00:00 (00:00)
9 Ukrainian Ninja Dec 23, 2014 FreeN/A (N/A)50,000 .. 100,0007.14%00:21 (00:07)
10 Orbit HD Mar 18, 2015 $1.99N/A (N/A)50,000 .. 100,0000%00:00 (00:00)
11 Bermuda Mar 17, 2015 $2.99N/A (N/A)20,000 .. 50,0000%00:00 (00:00)
12 Ephemerid: A Musical Adventure Feb 3, 2015 $1.99N/A (N/A)20,000 .. 50,0000%00:00 (00:00)
13 A Druid's Duel Feb 25, 2015 $7.99N/A (N/A/70%)20,000 .. 50,0000%00:00 (00:00)
14 Amphora Nov 12, 2014 $13.99N/A (N/A)0 .. 20,0000%00:00 (00:00)
15 Grass Simulator Apr 1, 2015 $4.99N/A (N/A)20,000 .. 50,0000%00:00 (00:00)
16 Master Spy Sep 8, 2015 $0.99N/A (N/A/68%)50,000 .. 100,0000%00:00 (00:00)
17 Disorder Jan 12, 2015 $3.99N/A (N/A/61%)20,000 .. 50,0000%00:00 (00:00)
18 The Sun and Moon Nov 14, 2014 $6.99N/A (N/A)20,000 .. 50,0000%00:00 (00:00)
19 Season of 12 Colors Mar 14, 2016 $1.79N/A (N/A)50,000 .. 100,0000%00:00 (00:00)
20 Old Man's Journey May 17, 2017 $7.99N/A (N/A/76%)100,000 .. 200,0000%00:00 (00:00)
21 Boogeyman 2 Feb 7, 2017 $4.99N/A (N/A)20,000 .. 50,0000%00:00 (00:00)
22 Ben and Ed - Blood Party Feb 13, 2018 $14.99N/A (N/A)100,000 .. 200,0000%00:00 (00:00)
23 Mini Thief Oct 12, 2018 $3.99N/A (N/A)20,000 .. 50,0000%00:00 (00:00)
24 Evertown Jan 11, 2016 $1.99N/A (N/A)20,000 .. 50,0000%00:00 (00:00)
25 That Dragon, Cancer Jan 11, 2016 $9.99N/A (N/A/78%)50,000 .. 100,0000%00:00 (00:00)
26 I and Me May 4, 2016 $9.99N/A (N/A)20,000 .. 50,0000%00:00 (00:00)
27 1979 Revolution: Black Friday Apr 4, 2016 $9.99N/A (N/A/80%)50,000 .. 100,0000%00:00 (00:00)
28 ONE DAY for Ched Sep 12, 2014 $3.99N/A (N/A)20,000 .. 50,0000%00:00 (00:00)
29 Polyball Dec 1, 2017 $14.99N/A (N/A)200,000 .. 500,0000%00:00 (00:00)
30 Lumini Sep 3, 2015 $12.99N/A (N/A/69%)0 .. 20,0000%00:00 (00:00)
31 Spellsworn Mar 13, 2018 FreeN/A (N/A)100,000 .. 200,0000%00:00 (00:00)
32 Choice Chamber Jul 16, 2015 $9.99N/A (N/A)20,000 .. 50,0000%00:00 (00:00)
33 Canabalt Apr 30, 2015 $2.99N/A (N/A)20,000 .. 50,0000%00:00 (00:00)
34 Inside My Radio May 11, 2015 $4.99N/A (N/A/68%)50,000 .. 100,0000%00:00 (00:00)
35 One More Line Aug 25, 2015 $0.74N/A (N/A)0 .. 20,0000%00:00 (00:00)
36 Party of Sin Dec 13, 2012 $5.99N/A (N/A)50,000 .. 100,0000%00:00 (00:00)
37 Montague's Mount Nov 19, 2013 $4.99N/A (N/A/39%)20,000 .. 50,0000%00:00 (00:00)
38 Escape Goat Oct 9, 2013 $4.99N/A (N/A)20,000 .. 50,0000%00:00 (00:00)
39 The Novelist Dec 10, 2013 $4.99N/A (N/A/66%)100,000 .. 200,0000%00:00 (00:00)
40 Super Puzzle Platformer Deluxe May 24, 2013 $7.99N/A (N/A)20,000 .. 50,0000%00:00 (00:00)
41 Rush Bros. May 24, 2013 $9.99N/A (N/A)100,000 .. 200,0000%00:00 (00:00)
42 Bad Hotel Oct 16, 2013 $4.99N/A (N/A)50,000 .. 100,0000%00:00 (00:00)
43 Retro/Grade Mar 20, 2013 $9.99N/A (N/A)50,000 .. 100,0000%00:00 (00:00)
44 Ultratron Mar 18, 2013 $12.99N/A (N/A)100,000 .. 200,0000%00:00 (00:00)
45 Ballpoint Universe - Infinite Dec 17, 2013 $3.99N/A (N/A)50,000 .. 100,0000%00:00 (00:00)
46 Sugar Cube: Bittersweet Factory Nov 7, 2012 $6.99N/A (N/A)20,000 .. 50,0000%00:00 (00:00)
47 Unmechanical Aug 8, 2012 $9.99N/A (N/A/74%)100,000 .. 200,0000%00:00 (00:00)
48 Lumino City Dec 2, 2014 $12.99N/A (N/A/70%)200,000 .. 500,0000%00:00 (00:00)
49 Titan Attacks! Feb 3, 2012 $12.99N/A (N/A)50,000 .. 100,0000%00:00 (00:00)
50 Really Big Sky Feb 24, 2012 $0.99N/A (N/A)500,000 .. 1,000,0000%00:00 (00:00)
51 Critter Crunch Sep 11, 2012 $6.99N/A (N/A)20,000 .. 50,0000%00:00 (00:00)
52 Madballs in Babo:Invasion Sep 17, 2009 $4.99N/A (N/A/79%)50,000 .. 100,0000%00:00 (00:00)
53 Three Dead Zed Jul 7, 2014 $5.99N/A (N/A)100,000 .. 200,0004%04:33 (01:31)
54 Chariot Nov 12, 2014 $14.99N/A (N/A/76%)100,000 .. 200,0000%00:00 (00:00)
55 Velocibox Sep 8, 2014 $4.99N/A (N/A)50,000 .. 100,0000%00:00 (00:00)
56 The Masterplan Jun 4, 2015 $19.99N/A (N/A/68%)50,000 .. 100,0000%00:00 (00:00)
57 OTTTD Aug 6, 2014 $1.99N/A (N/A)20,000 .. 50,0000%00:00 (00:00)
58 Mega Coin Squad Aug 15, 2014 $14.99N/A (N/A/56%)0 .. 20,0000%00:00 (00:00)
59 Echo of the Wilds Jun 10, 2014 $6.99N/A (N/A)100,000 .. 200,0000%00:00 (00:00)
60 Team Indie Oct 8, 2014 N/AN/A (N/A)50,000 .. 100,0000%00:00 (00:00)
61 Rhythm Destruction Jun 16, 2014 $4.99N/A (N/A)50,000 .. 100,0000%00:00 (00:00)
62 The Wonderful End of the World Jan 25, 2008 $9.99N/A (N/A/69%)100,000 .. 200,0000%00:00 (00:00)
63 Volt Apr 14, 2014 $0.99N/A (N/A)100,000 .. 200,0000%00:00 (00:00)
64 ReignMaker Apr 16, 2014 $14.99N/A (N/A)50,000 .. 100,0000%00:00 (00:00)
65 Rabbit Hole 3D: Steam Edition Apr 25, 2014 $2.99N/A (N/A)50,000 .. 100,0000%00:00 (00:00)
66 Canyon Capers Apr 25, 2014 $6.99N/A (N/A)200,000 .. 500,0000%00:00 (00:00)
67 RONIN Jun 30, 2015 $12.99N/A (N/A/70%)100,000 .. 200,0000%00:00 (00:00)
68 //N.P.P.D. RUSH//- The milk of Ultraviolet Feb 13, 2014 $3.99N/A (N/A)100,000 .. 200,0000%00:00 (00:00)
69 NaissanceE Feb 13, 2014 FreeN/A (N/A/66%)100,000 .. 200,0000%00:00 (00:00)

Tags over time:

Access restricted.

This feature is only available to users with special access rights. Sorry.

If you want to proceed, you need to register or log in first and then back Steam Spy on Patreon. Look for Indie or Pro pledge.

Don't forget to use the same email as on Steam Spy!

If you've recently backed Steam Spy on Patreon, please note, that it might take around 15 minutes for your access rights to sync. In most cases you'll need to re-login on Steam Spy too.

Owners of this game also own:

Access restricted.

This feature is only available to users with special access rights. Sorry.

If you want to proceed, you need to register or log in first and then back Steam Spy on Patreon. Look for Indie or Pro pledge.

Don't forget to use the same email as on Steam Spy!

If you've recently backed Steam Spy on Patreon, please note, that it might take around 15 minutes for your access rights to sync. In most cases you'll need to re-login on Steam Spy too.

Playtime distribution:

Access restricted.

This feature is only available to users with special access rights. Sorry.

If you want to proceed, you need to register or log in first and then back Steam Spy on Patreon. Look for Indie or Pro pledge.

Don't forget to use the same email as on Steam Spy!

If you've recently backed Steam Spy on Patreon, please note, that it might take around 15 minutes for your access rights to sync. In most cases you'll need to re-login on Steam Spy too.

Playtime (2 weeks):

Access restricted.

This feature is only available to users with special access rights. Sorry.

If you want to proceed, you need to register or log in first and then back Steam Spy on Patreon. Look for Indie or Pro pledge.

Don't forget to use the same email as on Steam Spy!

If you've recently backed Steam Spy on Patreon, please note, that it might take around 15 minutes for your access rights to sync. In most cases you'll need to re-login on Steam Spy too.

User reviews:

Login required.

Please register or log in to see this information.